sensor_id;sensor_type;location;lat;lon;timestamp;P1;durP1;ratioP1;P2;durP2;ratioP2
70707;SDS011;58277;47.316;18.908;2022-08-19T00:00:06;14.10;;;9.07;;
70707;SDS011;58277;47.316;18.908;2022-08-19T00:02:30;12.85;;;9.55;;
70707;SDS011;58277;47.316;18.908;2022-08-19T00:04:53;13.45;;;9.80;;
70707;SDS011;58277;47.316;18.908;2022-08-19T00:07:16;13.03;;;9.50;;
70707;SDS011;58277;47.316;18.908;2022-08-19T00:09:39;14.73;;;9.77;;
70707;SDS011;58277;47.316;18.908;2022-08-19T00:12:03;14.07;;;9.63;;
70707;SDS011;58277;47.316;18.908;2022-08-19T00:14:26;15.27;;;9.50;;
70707;SDS011;58277;47.316;18.908;2022-08-19T00:16:52;15.93;;;9.43;;
70707;SDS011;58277;47.316;18.908;2022-08-19T00:19:16;14.63;;;9.27;;
70707;SDS011;58277;47.316;18.908;2022-08-19T00:21:39;14.32;;;9.60;;
70707;SDS011;58277;47.316;18.908;2022-08-19T00:24:02;14.65;;;9.52;;
70707;SDS011;58277;47.316;18.908;2022-08-19T00:26:25;14.60;;;9.63;;
70707;SDS011;58277;47.316;18.908;2022-08-19T00:28:49;13.90;;;10.10;;
70707;SDS011;58277;47.316;18.908;2022-08-19T00:31:11;15.93;;;9.97;;
70707;SDS011;58277;47.316;18.908;2022-08-19T00:33:34;13.88;;;9.05;;
70707;SDS011;58277;47.316;18.908;2022-08-19T00:35:57;14.18;;;9.45;;
70707;SDS011;58277;47.316;18.908;2022-08-19T00:38:20;13.75;;;9.57;;
70707;SDS011;58277;47.316;18.908;2022-08-19T00:40:58;13.57;;;9.65;;
70707;SDS011;58277;47.316;18.908;2022-08-19T00:43:23;14.83;;;9.50;;
70707;SDS011;58277;47.316;18.908;2022-08-19T00:45:49;12.55;;;9.13;;
70707;SDS011;58277;47.316;18.908;2022-08-19T00:48:13;14.93;;;10.00;;
70707;SDS011;58277;47.316;18.908;2022-08-19T00:50:37;14.75;;;9.30;;
70707;SDS011;58277;47.316;18.908;2022-08-19T00:53:14;13.93;;;9.40;;
70707;SDS011;58277;47.316;18.908;2022-08-19T00:55:39;14.47;;;9.87;;
70707;SDS011;58277;47.316;18.908;2022-08-19T00:58:06;15.20;;;9.90;;
70707;SDS011;58277;47.316;18.908;2022-08-19T01:00:32;15.75;;;9.45;;
70707;SDS011;58277;47.316;18.908;2022-08-19T01:02:59;13.63;;;9.55;;
70707;SDS011;58277;47.316;18.908;2022-08-19T01:05:24;16.50;;;10.05;;
70707;SDS011;58277;47.316;18.908;2022-08-19T01:07:49;14.03;;;10.03;;
70707;SDS011;58277;47.316;18.908;2022-08-19T01:10:15;13.93;;;9.68;;
70707;SDS011;58277;47.316;18.908;2022-08-19T01:12:41;17.17;;;9.50;;
70707;SDS011;58277;47.316;18.908;2022-08-19T01:15:05;18.95;;;9.40;;
70707;SDS011;58277;47.316;18.908;2022-08-19T01:17:30;15.27;;;10.15;;
70707;SDS011;58277;47.316;18.908;2022-08-19T01:19:53;14.93;;;9.60;;
70707;SDS011;58277;47.316;18.908;2022-08-19T01:22:25;14.80;;;9.70;;
70707;SDS011;58277;47.316;18.908;2022-08-19T01:24:54;13.35;;;9.05;;
70707;SDS011;58277;47.316;18.908;2022-08-19T01:27:17;14.93;;;9.82;;
70707;SDS011;58277;47.316;18.908;2022-08-19T01:29:42;15.15;;;10.00;;
70707;SDS011;58277;47.316;18.908;2022-08-19T01:32:07;15.70;;;10.20;;
70707;SDS011;58277;47.316;18.908;2022-08-19T01:34:54;17.13;;;9.43;;
70707;SDS011;58277;47.316;18.908;2022-08-19T01:37:16;14.95;;;10.30;;
70707;SDS011;58277;47.316;18.908;2022-08-19T01:39:48;14.25;;;10.30;;
70707;SDS011;58277;47.316;18.908;2022-08-19T01:42:11;14.38;;;9.93;;
70707;SDS011;58277;47.316;18.908;2022-08-19T01:44:34;13.10;;;9.60;;
70707;SDS011;58277;47.316;18.908;2022-08-19T01:46:58;17.08;;;10.15;;
70707;SDS011;58277;47.316;18.908;2022-08-19T01:49:21;14.95;;;10.43;;
70707;SDS011;58277;47.316;18.908;2022-08-19T01:51:47;16.27;;;10.00;;
70707;SDS011;58277;47.316;18.908;2022-08-19T01:54:12;14.68;;;10.60;;
70707;SDS011;58277;47.316;18.908;2022-08-19T01:56:49;15.60;;;10.43;;
70707;SDS011;58277;47.316;18.908;2022-08-19T01:59:15;15.25;;;9.98;;
70707;SDS011;58277;47.316;18.908;2022-08-19T02:01:41;14.70;;;10.02;;
70707;SDS011;58277;47.316;18.908;2022-08-19T02:04:03;14.38;;;10.18;;
70707;SDS011;58277;47.316;18.908;2022-08-19T02:06:28;13.80;;;9.68;;
70707;SDS011;58277;47.316;18.908;2022-08-19T02:08:51;16.63;;;9.90;;
70707;SDS011;58277;47.316;18.908;2022-08-19T02:11:22;14.40;;;10.45;;
70707;SDS011;58277;47.316;18.908;2022-08-19T02:13:48;14.27;;;9.82;;
70707;SDS011;58277;47.316;18.908;2022-08-19T02:16:11;15.80;;;9.88;;
70707;SDS011;58277;47.316;18.908;2022-08-19T02:18:34;15.10;;;10.48;;
70707;SDS011;58277;47.316;18.908;2022-08-19T02:20:57;14.80;;;9.97;;
70707;SDS011;58277;47.316;18.908;2022-08-19T02:23:19;14.52;;;9.43;;
70707;SDS011;58277;47.316;18.908;2022-08-19T02:25:43;16.80;;;10.00;;
70707;SDS011;58277;47.316;18.908;2022-08-19T02:28:07;13.32;;;9.35;;
70707;SDS011;58277;47.316;18.908;2022-08-19T02:30:30;14.98;;;9.48;;
70707;SDS011;58277;47.316;18.908;2022-08-19T02:32:52;16.47;;;9.90;;
70707;SDS011;58277;47.316;18.908;2022-08-19T02:35:15;16.35;;;9.77;;
70707;SDS011;58277;47.316;18.908;2022-08-19T02:37:39;14.50;;;9.65;;
70707;SDS011;58277;47.316;18.908;2022-08-19T02:40:21;14.60;;;9.98;;
70707;SDS011;58277;47.316;18.908;2022-08-19T02:42:44;15.55;;;9.90;;
70707;SDS011;58277;47.316;18.908;2022-08-19T02:45:07;14.93;;;10.27;;
70707;SDS011;58277;47.316;18.908;2022-08-19T02:47:31;14.52;;;10.18;;
70707;SDS011;58277;47.316;18.908;2022-08-19T02:49:54;15.30;;;10.05;;
70707;SDS011;58277;47.316;18.908;2022-08-19T02:52:16;14.75;;;9.90;;
70707;SDS011;58277;47.316;18.908;2022-08-19T02:54:39;16.98;;;10.30;;
70707;SDS011;58277;47.316;18.908;2022-08-19T02:57:01;16.30;;;10.03;;
70707;SDS011;58277;47.316;18.908;2022-08-19T02:59:24;13.57;;;9.80;;
70707;SDS011;58277;47.316;18.908;2022-08-19T03:01:48;15.15;;;9.95;;
70707;SDS011;58277;47.316;18.908;2022-08-19T03:04:12;16.92;;;10.10;;
70707;SDS011;58277;47.316;18.908;2022-08-19T03:06:38;16.75;;;9.93;;
70707;SDS011;58277;47.316;18.908;2022-08-19T03:09:02;13.87;;;9.27;;
70707;SDS011;58277;47.316;18.908;2022-08-19T03:11:26;16.00;;;10.32;;
70707;SDS011;58277;47.316;18.908;2022-08-19T03:13:51;14.90;;;10.20;;
70707;SDS011;58277;47.316;18.908;2022-08-19T03:16:15;15.50;;;10.40;;
70707;SDS011;58277;47.316;18.908;2022-08-19T03:18:39;15.60;;;9.98;;
70707;SDS011;58277;47.316;18.908;2022-08-19T03:21:02;16.30;;;9.77;;
70707;SDS011;58277;47.316;18.908;2022-08-19T03:23:25;15.35;;;10.20;;
70707;SDS011;58277;47.316;18.908;2022-08-19T03:25:48;13.52;;;9.38;;
70707;SDS011;58277;47.316;18.908;2022-08-19T03:28:25;14.02;;;10.02;;
70707;SDS011;58277;47.316;18.908;2022-08-19T03:30:55;20.83;;;10.57;;
70707;SDS011;58277;47.316;18.908;2022-08-19T03:33:22;13.23;;;9.60;;
70707;SDS011;58277;47.316;18.908;2022-08-19T03:35:59;17.73;;;10.07;;
70707;SDS011;58277;47.316;18.908;2022-08-19T03:38:39;16.83;;;10.10;;
70707;SDS011;58277;47.316;18.908;2022-08-19T03:41:05;15.55;;;10.65;;
70707;SDS011;58277;47.316;18.908;2022-08-19T03:43:30;14.35;;;10.32;;
70707;SDS011;58277;47.316;18.908;2022-08-19T03:46:00;16.93;;;10.00;;
70707;SDS011;58277;47.316;18.908;2022-08-19T03:48:33;14.90;;;9.57;;
70707;SDS011;58277;47.316;18.908;2022-08-19T03:50:57;16.88;;;10.43;;
70707;SDS011;58277;47.316;18.908;2022-08-19T03:53:21;15.60;;;9.85;;
70707;SDS011;58277;47.316;18.908;2022-08-19T03:55:43;14.75;;;9.98;;
70707;SDS011;58277;47.316;18.908;2022-08-19T03:58:06;16.47;;;9.87;;
70707;SDS011;58277;47.316;18.908;2022-08-19T04:00:29;13.45;;;10.05;;
70707;SDS011;58277;47.316;18.908;2022-08-19T04:02:51;13.73;;;10.02;;
70707;SDS011;58277;47.316;18.908;2022-08-19T04:05:21;15.30;;;10.10;;
70707;SDS011;58277;47.316;18.908;2022-08-19T04:07:49;15.35;;;10.77;;
70707;SDS011;58277;47.316;18.908;2022-08-19T04:10:11;15.53;;;10.57;;
70707;SDS011;58277;47.316;18.908;2022-08-19T04:12:35;16.85;;;10.35;;
70707;SDS011;58277;47.316;18.908;2022-08-19T04:14:58;17.02;;;10.68;;
70707;SDS011;58277;47.316;18.908;2022-08-19T04:17:21;15.15;;;10.45;;
70707;SDS011;58277;47.316;18.908;2022-08-19T04:19:44;15.68;;;10.48;;
70707;SDS011;58277;47.316;18.908;2022-08-19T04:22:06;18.80;;;10.57;;
70707;SDS011;58277;47.316;18.908;2022-08-19T04:24:29;16.25;;;10.57;;
70707;SDS011;58277;47.316;18.908;2022-08-19T04:26:52;15.95;;;10.38;;
70707;SDS011;58277;47.316;18.908;2022-08-19T04:29:16;15.60;;;10.35;;
70707;SDS011;58277;47.316;18.908;2022-08-19T04:31:41;15.40;;;11.10;;
70707;SDS011;58277;47.316;18.908;2022-08-19T04:34:07;16.10;;;10.30;;
70707;SDS011;58277;47.316;18.908;2022-08-19T04:36:33;14.20;;;10.35;;
70707;SDS011;58277;47.316;18.908;2022-08-19T04:39:00;16.05;;;10.15;;
70707;SDS011;58277;47.316;18.908;2022-08-19T04:41:26;18.65;;;9.75;;
70707;SDS011;58277;47.316;18.908;2022-08-19T04:44:12;12.90;;;9.55;;
70707;SDS011;58277;47.316;18.908;2022-08-19T04:46:35;15.30;;;10.00;;
70707;SDS011;58277;47.316;18.908;2022-08-19T04:49:12;13.25;;;9.35;;
70707;SDS011;58277;47.316;18.908;2022-08-19T04:51:39;15.73;;;9.57;;
70707;SDS011;58277;47.316;18.908;2022-08-19T04:54:04;16.58;;;9.27;;
70707;SDS011;58277;47.316;18.908;2022-08-19T04:56:27;17.42;;;9.82;;
70707;SDS011;58277;47.316;18.908;2022-08-19T04:58:50;13.27;;;9.10;;
70707;SDS011;58277;47.316;18.908;2022-08-19T05:01:14;20.00;;;9.90;;
70707;SDS011;58277;47.316;18.908;2022-08-19T05:03:40;17.95;;;9.73;;
70707;SDS011;58277;47.316;18.908;2022-08-19T05:06:06;14.70;;;9.52;;
70707;SDS011;58277;47.316;18.908;2022-08-19T05:08:33;15.45;;;9.50;;
70707;SDS011;58277;47.316;18.908;2022-08-19T05:10:57;15.30;;;9.13;;
70707;SDS011;58277;47.316;18.908;2022-08-19T05:13:20;16.00;;;9.48;;
70707;SDS011;58277;47.316;18.908;2022-08-19T05:15:42;15.80;;;9.50;;
70707;SDS011;58277;47.316;18.908;2022-08-19T05:18:05;13.82;;;9.40;;
70707;SDS011;58277;47.316;18.908;2022-08-19T05:20:46;13.98;;;9.63;;
70707;SDS011;58277;47.316;18.908;2022-08-19T05:23:28;14.97;;;9.90;;
70707;SDS011;58277;47.316;18.908;2022-08-19T05:25:50;15.73;;;9.63;;
70707;SDS011;58277;47.316;18.908;2022-08-19T05:28:13;18.92;;;10.10;;
70707;SDS011;58277;47.316;18.908;2022-08-19T05:30:36;18.48;;;9.70;;
70707;SDS011;58277;47.316;18.908;2022-08-19T05:33:08;13.38;;;9.07;;
70707;SDS011;58277;47.316;18.908;2022-08-19T05:35:32;13.87;;;9.27;;
70707;SDS011;58277;47.316;18.908;2022-08-19T05:37:56;15.77;;;9.57;;
70707;SDS011;58277;47.316;18.908;2022-08-19T05:40:20;14.27;;;9.15;;
70707;SDS011;58277;47.316;18.908;2022-08-19T05:42:44;16.35;;;9.27;;
70707;SDS011;58277;47.316;18.908;2022-08-19T05:45:16;14.63;;;9.68;;
70707;SDS011;58277;47.316;18.908;2022-08-19T05:47:39;12.77;;;9.07;;
70707;SDS011;58277;47.316;18.908;2022-08-19T05:50:03;15.65;;;9.27;;
70707;SDS011;58277;47.316;18.908;2022-08-19T05:52:26;15.70;;;9.65;;
70707;SDS011;58277;47.316;18.908;2022-08-19T05:54:51;14.57;;;9.30;;
70707;SDS011;58277;47.316;18.908;2022-08-19T05:57:20;13.18;;;9.63;;
70707;SDS011;58277;47.316;18.908;2022-08-19T05:59:43;15.50;;;9.40;;
70707;SDS011;58277;47.316;18.908;2022-08-19T06:02:08;12.45;;;9.30;;
70707;SDS011;58277;47.316;18.908;2022-08-19T06:04:31;14.70;;;9.05;;
70707;SDS011;58277;47.316;18.908;2022-08-19T06:06:54;13.57;;;8.95;;
70707;SDS011;58277;47.316;18.908;2022-08-19T06:09:17;16.13;;;9.35;;
70707;SDS011;58277;47.316;18.908;2022-08-19T06:14:17;15.10;;;9.20;;
70707;SDS011;58277;47.316;18.908;2022-08-19T06:16:49;15.38;;;9.60;;
70707;SDS011;58277;47.316;18.908;2022-08-19T06:19:15;13.73;;;9.07;;
70707;SDS011;58277;47.316;18.908;2022-08-19T06:21:40;15.13;;;9.10;;
70707;SDS011;58277;47.316;18.908;2022-08-19T06:24:05;14.27;;;8.80;;
70707;SDS011;58277;47.316;18.908;2022-08-19T06:26:29;14.43;;;8.65;;
70707;SDS011;58277;47.316;18.908;2022-08-19T06:28:52;15.07;;;9.02;;
70707;SDS011;58277;47.316;18.908;2022-08-19T06:31:15;14.48;;;8.60;;
70707;SDS011;58277;47.316;18.908;2022-08-19T06:33:42;17.23;;;8.98;;
70707;SDS011;58277;47.316;18.908;2022-08-19T06:36:06;17.07;;;8.80;;
70707;SDS011;58277;47.316;18.908;2022-08-19T06:38:29;13.15;;;8.82;;
70707;SDS011;58277;47.316;18.908;2022-08-19T06:41:03;14.73;;;9.10;;
70707;SDS011;58277;47.316;18.908;2022-08-19T06:43:29;18.58;;;8.40;;
70707;SDS011;58277;47.316;18.908;2022-08-19T06:45:52;15.85;;;8.23;;
70707;SDS011;58277;47.316;18.908;2022-08-19T06:48:14;16.07;;;8.70;;
70707;SDS011;58277;47.316;18.908;2022-08-19T06:50:39;14.88;;;8.05;;
70707;SDS011;58277;47.316;18.908;2022-08-19T06:53:02;13.65;;;8.30;;
70707;SDS011;58277;47.316;18.908;2022-08-19T06:55:26;13.45;;;8.45;;
70707;SDS011;58277;47.316;18.908;2022-08-19T06:57:51;14.27;;;8.77;;
70707;SDS011;58277;47.316;18.908;2022-08-19T07:00:16;14.27;;;8.47;;
70707;SDS011;58277;47.316;18.908;2022-08-19T07:02:40;14.35;;;8.73;;
70707;SDS011;58277;47.316;18.908;2022-08-19T07:05:16;15.98;;;8.23;;
70707;SDS011;58277;47.316;18.908;2022-08-19T07:07:41;16.17;;;8.80;;
70707;SDS011;58277;47.316;18.908;2022-08-19T07:10:08;15.18;;;8.52;;
70707;SDS011;58277;47.316;18.908;2022-08-19T07:12:32;15.87;;;8.90;;
70707;SDS011;58277;47.316;18.908;2022-08-19T07:14:59;13.00;;;8.45;;
70707;SDS011;58277;47.316;18.908;2022-08-19T07:17:23;15.00;;;8.30;;
70707;SDS011;58277;47.316;18.908;2022-08-19T07:19:46;15.60;;;8.20;;
70707;SDS011;58277;47.316;18.908;2022-08-19T07:22:10;11.73;;;7.80;;
70707;SDS011;58277;47.316;18.908;2022-08-19T07:24:34;13.03;;;7.93;;
70707;SDS011;58277;47.316;18.908;2022-08-19T07:26:59;12.57;;;7.75;;
70707;SDS011;58277;47.316;18.908;2022-08-19T07:29:29;12.52;;;8.18;;
70707;SDS011;58277;47.316;18.908;2022-08-19T07:31:56;13.50;;;7.75;;
70707;SDS011;58277;47.316;18.908;2022-08-19T07:34:22;11.43;;;8.75;;
70707;SDS011;58277;47.316;18.908;2022-08-19T07:36:45;10.80;;;8.00;;
70707;SDS011;58277;47.316;18.908;2022-08-19T07:39:14;17.75;;;8.10;;
70707;SDS011;58277;47.316;18.908;2022-08-19T07:41:42;13.80;;;8.00;;
70707;SDS011;58277;47.316;18.908;2022-08-19T07:44:06;12.93;;;8.13;;
70707;SDS011;58277;47.316;18.908;2022-08-19T07:46:33;14.73;;;8.38;;
70707;SDS011;58277;47.316;18.908;2022-08-19T07:48:58;11.97;;;7.60;;
70707;SDS011;58277;47.316;18.908;2022-08-19T07:51:22;11.35;;;7.65;;
70707;SDS011;58277;47.316;18.908;2022-08-19T07:53:58;11.85;;;7.72;;
70707;SDS011;58277;47.316;18.908;2022-08-19T07:56:21;12.30;;;7.72;;
70707;SDS011;58277;47.316;18.908;2022-08-19T07:58:45;15.55;;;8.02;;
70707;SDS011;58277;47.316;18.908;2022-08-19T08:01:11;14.27;;;7.87;;
70707;SDS011;58277;47.316;18.908;2022-08-19T08:03:37;12.27;;;8.05;;
70707;SDS011;58277;47.316;18.908;2022-08-19T08:06:18;11.77;;;7.63;;
70707;SDS011;58277;47.316;18.908;2022-08-19T08:09:05;13.00;;;7.82;;
70707;SDS011;58277;47.316;18.908;2022-08-19T08:11:38;11.27;;;7.63;;
70707;SDS011;58277;47.316;18.908;2022-08-19T08:14:02;13.10;;;7.77;;
70707;SDS011;58277;47.316;18.908;2022-08-19T08:16:25;11.15;;;7.53;;
70707;SDS011;58277;47.316;18.908;2022-08-19T08:18:52;12.20;;;7.75;;
70707;SDS011;58277;47.316;18.908;2022-08-19T08:21:15;11.32;;;7.88;;
70707;SDS011;58277;47.316;18.908;2022-08-19T08:23:37;12.65;;;7.57;;
70707;SDS011;58277;47.316;18.908;2022-08-19T08:26:00;14.17;;;7.67;;
70707;SDS011;58277;47.316;18.908;2022-08-19T08:28:24;14.63;;;7.95;;
70707;SDS011;58277;47.316;18.908;2022-08-19T08:30:51;10.73;;;7.97;;
70707;SDS011;58277;47.316;18.908;2022-08-19T08:33:17;12.32;;;7.60;;
70707;SDS011;58277;47.316;18.908;2022-08-19T08:35:54;10.13;;;7.25;;
70707;SDS011;58277;47.316;18.908;2022-08-19T08:38:17;13.10;;;7.60;;
70707;SDS011;58277;47.316;18.908;2022-08-19T08:43:18;14.10;;;7.75;;
70707;SDS011;58277;47.316;18.908;2022-08-19T08:46:13;12.70;;;7.78;;
70707;SDS011;58277;47.316;18.908;2022-08-19T08:49:01;8.98;;;7.47;;
70707;SDS011;58277;47.316;18.908;2022-08-19T08:51:48;9.87;;;6.80;;
70707;SDS011;58277;47.316;18.908;2022-08-19T08:54:40;10.43;;;7.57;;
70707;SDS011;58277;47.316;18.908;2022-08-19T08:57:27;14.38;;;7.20;;
70707;SDS011;58277;47.316;18.908;2022-08-19T09:00:04;11.82;;;7.28;;
70707;SDS011;58277;47.316;18.908;2022-08-19T09:02:37;10.32;;;7.20;;
70707;SDS011;58277;47.316;18.908;2022-08-19T09:05:04;10.47;;;7.67;;
70707;SDS011;58277;47.316;18.908;2022-08-19T09:12:58;11.15;;;6.97;;
70707;SDS011;58277;47.316;18.908;2022-08-19T09:15:38;10.93;;;7.93;;
70707;SDS011;58277;47.316;18.908;2022-08-19T09:18:08;12.90;;;8.40;;
70707;SDS011;58277;47.316;18.908;2022-08-19T09:20:40;9.30;;;7.72;;
70707;SDS011;58277;47.316;18.908;2022-08-19T09:23:04;12.48;;;7.57;;
70707;SDS011;58277;47.316;18.908;2022-08-19T09:25:27;11.63;;;7.55;;
70707;SDS011;58277;47.316;18.908;2022-08-19T09:27:51;11.27;;;8.05;;
70707;SDS011;58277;47.316;18.908;2022-08-19T09:30:24;11.20;;;7.40;;
70707;SDS011;58277;47.316;18.908;2022-08-19T09:32:52;10.52;;;7.15;;
70707;SDS011;58277;47.316;18.908;2022-08-19T09:35:16;9.48;;;7.60;;
70707;SDS011;58277;47.316;18.908;2022-08-19T09:37:38;11.50;;;7.85;;
70707;SDS011;58277;47.316;18.908;2022-08-19T09:40:02;11.73;;;7.93;;
70707;SDS011;58277;47.316;18.908;2022-08-19T09:42:26;12.17;;;8.20;;
70707;SDS011;58277;47.316;18.908;2022-08-19T09:44:51;10.30;;;7.65;;
70707;SDS011;58277;47.316;18.908;2022-08-19T09:47:14;12.45;;;7.50;;
70707;SDS011;58277;47.316;18.908;2022-08-19T09:49:41;12.20;;;7.68;;
70707;SDS011;58277;47.316;18.908;2022-08-19T09:52:04;11.70;;;7.75;;
70707;SDS011;58277;47.316;18.908;2022-08-19T09:54:27;10.20;;;7.63;;
70707;SDS011;58277;47.316;18.908;2022-08-19T09:56:51;13.00;;;8.15;;
70707;SDS011;58277;47.316;18.908;2022-08-19T09:59:17;10.75;;;7.93;;
70707;SDS011;58277;47.316;18.908;2022-08-19T10:01:40;9.20;;;7.50;;
70707;SDS011;58277;47.316;18.908;2022-08-19T10:04:04;9.25;;;8.20;;
70707;SDS011;58277;47.316;18.908;2022-08-19T10:06:41;10.40;;;7.80;;
70707;SDS011;58277;47.316;18.908;2022-08-19T10:09:09;12.45;;;7.70;;
70707;SDS011;58277;47.316;18.908;2022-08-19T10:11:33;11.25;;;7.53;;
70707;SDS011;58277;47.316;18.908;2022-08-19T10:14:02;11.88;;;7.78;;
70707;SDS011;58277;47.316;18.908;2022-08-19T10:16:27;13.93;;;9.15;;
70707;SDS011;58277;47.316;18.908;2022-08-19T10:18:52;13.23;;;9.73;;
70707;SDS011;58277;47.316;18.908;2022-08-19T10:21:24;12.07;;;9.50;;
70707;SDS011;58277;47.316;18.908;2022-08-19T10:23:50;14.07;;;9.18;;
70707;SDS011;58277;47.316;18.908;2022-08-19T10:26:16;12.88;;;8.68;;
70707;SDS011;58277;47.316;18.908;2022-08-19T10:28:41;12.27;;;8.57;;
70707;SDS011;58277;47.316;18.908;2022-08-19T10:31:12;10.80;;;8.63;;
70707;SDS011;58277;47.316;18.908;2022-08-19T10:33:40;14.60;;;10.77;;
70707;SDS011;58277;47.316;18.908;2022-08-19T10:36:16;14.18;;;10.70;;
70707;SDS011;58277;47.316;18.908;2022-08-19T10:38:41;12.95;;;10.77;;
70707;SDS011;58277;47.316;18.908;2022-08-19T10:41:19;18.35;;;12.43;;
70707;SDS011;58277;47.316;18.908;2022-08-19T10:43:47;15.07;;;12.10;;
70707;SDS011;58277;47.316;18.908;2022-08-19T10:46:13;17.00;;;13.07;;
70707;SDS011;58277;47.316;18.908;2022-08-19T10:48:38;19.90;;;14.00;;
70707;SDS011;58277;47.316;18.908;2022-08-19T10:51:03;17.48;;;14.82;;
70707;SDS011;58277;47.316;18.908;2022-08-19T10:53:45;19.38;;;15.20;;
70707;SDS011;58277;47.316;18.908;2022-08-19T10:56:09;17.63;;;15.10;;
70707;SDS011;58277;47.316;18.908;2022-08-19T10:58:50;19.77;;;16.77;;
70707;SDS011;58277;47.316;18.908;2022-08-19T11:01:12;21.67;;;17.63;;
70707;SDS011;58277;47.316;18.908;2022-08-19T11:03:35;22.10;;;17.88;;
70707;SDS011;58277;47.316;18.908;2022-08-19T11:06:13;21.23;;;18.02;;
70707;SDS011;58277;47.316;18.908;2022-08-19T11:08:36;23.30;;;19.40;;
70707;SDS011;58277;47.316;18.908;2022-08-19T11:11:04;23.55;;;21.08;;
70707;SDS011;58277;47.316;18.908;2022-08-19T11:13:29;23.92;;;21.40;;
70707;SDS011;58277;47.316;18.908;2022-08-19T11:16:05;26.88;;;23.00;;
70707;SDS011;58277;47.316;18.908;2022-08-19T11:18:43;26.52;;;23.35;;
70707;SDS011;58277;47.316;18.908;2022-08-19T11:21:21;28.23;;;25.20;;
70707;SDS011;58277;47.316;18.908;2022-08-19T11:23:46;26.77;;;23.40;;
70707;SDS011;58277;47.316;18.908;2022-08-19T11:28:56;22.70;;;20.27;;
70707;SDS011;58277;47.316;18.908;2022-08-19T11:31:21;22.98;;;19.08;;
70707;SDS011;58277;47.316;18.908;2022-08-19T11:33:50;18.77;;;13.63;;
70707;SDS011;58277;47.316;18.908;2022-08-19T11:36:16;15.57;;;12.18;;
70707;SDS011;58277;47.316;18.908;2022-08-19T11:38:39;16.52;;;12.27;;
70707;SDS011;58277;47.316;18.908;2022-08-19T11:41:03;10.60;;;8.10;;
70707;SDS011;58277;47.316;18.908;2022-08-19T11:43:29;10.55;;;6.68;;
70707;SDS011;58277;47.316;18.908;2022-08-19T11:45:58;10.90;;;6.47;;
70707;SDS011;58277;47.316;18.908;2022-08-19T11:48:22;12.40;;;7.25;;
70707;SDS011;58277;47.316;18.908;2022-08-19T11:50:45;9.25;;;7.00;;
70707;SDS011;58277;47.316;18.908;2022-08-19T11:53:08;12.05;;;6.80;;
70707;SDS011;58277;47.316;18.908;2022-08-19T11:55:32;9.68;;;6.80;;
70707;SDS011;58277;47.316;18.908;2022-08-19T11:57:55;9.10;;;6.53;;
70707;SDS011;58277;47.316;18.908;2022-08-19T12:00:17;11.18;;;6.75;;
70707;SDS011;58277;47.316;18.908;2022-08-19T12:02:40;12.65;;;6.57;;
70707;SDS011;58277;47.316;18.908;2022-08-19T12:05:03;11.02;;;6.20;;
70707;SDS011;58277;47.316;18.908;2022-08-19T12:07:33;12.70;;;6.80;;
70707;SDS011;58277;47.316;18.908;2022-08-19T12:09:56;15.10;;;6.37;;
70707;SDS011;58277;47.316;18.908;2022-08-19T12:12:19;11.98;;;6.30;;
70707;SDS011;58277;47.316;18.908;2022-08-19T12:14:42;9.85;;;7.05;;
70707;SDS011;58277;47.316;18.908;2022-08-19T12:17:04;11.20;;;6.10;;
70707;SDS011;58277;47.316;18.908;2022-08-19T12:19:29;10.40;;;6.30;;
70707;SDS011;58277;47.316;18.908;2022-08-19T12:21:52;10.90;;;6.20;;
70707;SDS011;58277;47.316;18.908;2022-08-19T12:24:17;12.32;;;6.50;;
70707;SDS011;58277;47.316;18.908;2022-08-19T12:26:45;8.48;;;6.47;;
70707;SDS011;58277;47.316;18.908;2022-08-19T12:29:15;8.07;;;6.10;;
70707;SDS011;58277;47.316;18.908;2022-08-19T12:31:44;13.52;;;6.03;;
70707;SDS011;58277;47.316;18.908;2022-08-19T12:34:07;8.20;;;5.90;;
70707;SDS011;58277;47.316;18.908;2022-08-19T12:36:31;10.88;;;5.85;;
70707;SDS011;58277;47.316;18.908;2022-08-19T12:38:54;12.13;;;5.88;;
70707;SDS011;58277;47.316;18.908;2022-08-19T12:41:17;13.73;;;7.97;;
70707;SDS011;58277;47.316;18.908;2022-08-19T12:43:41;10.05;;;6.53;;
70707;SDS011;58277;47.316;18.908;2022-08-19T12:46:04;11.83;;;5.90;;
70707;SDS011;58277;47.316;18.908;2022-08-19T12:48:29;11.00;;;6.10;;
70707;SDS011;58277;47.316;18.908;2022-08-19T12:50:56;11.30;;;6.03;;
70707;SDS011;58277;47.316;18.908;2022-08-19T12:53:18;9.65;;;5.82;;
70707;SDS011;58277;47.316;18.908;2022-08-19T12:55:41;11.10;;;5.65;;
70707;SDS011;58277;47.316;18.908;2022-08-19T12:58:07;9.63;;;5.10;;
70707;SDS011;58277;47.316;18.908;2022-08-19T13:00:29;14.30;;;5.80;;
70707;SDS011;58277;47.316;18.908;2022-08-19T13:02:54;11.93;;;6.00;;
70707;SDS011;58277;47.316;18.908;2022-08-19T13:05:19;14.73;;;6.35;;
70707;SDS011;58277;47.316;18.908;2022-08-19T13:07:45;21.23;;;6.63;;
70707;SDS011;58277;47.316;18.908;2022-08-19T13:10:08;22.17;;;6.43;;
70707;SDS011;58277;47.316;18.908;2022-08-19T13:12:34;20.40;;;6.40;;
70707;SDS011;58277;47.316;18.908;2022-08-19T13:14:57;20.25;;;7.20;;
70707;SDS011;58277;47.316;18.908;2022-08-19T13:17:20;17.50;;;6.93;;
70707;SDS011;58277;47.316;18.908;2022-08-19T13:19:43;14.38;;;7.38;;
70707;SDS011;58277;47.316;18.908;2022-08-19T13:22:05;18.13;;;6.90;;
70707;SDS011;58277;47.316;18.908;2022-08-19T13:24:36;15.02;;;6.78;;
70707;SDS011;58277;47.316;18.908;2022-08-19T13:27:00;14.18;;;7.28;;
70707;SDS011;58277;47.316;18.908;2022-08-19T13:29:23;13.45;;;7.03;;
70707;SDS011;58277;47.316;18.908;2022-08-19T13:32:04;14.25;;;7.30;;
70707;SDS011;58277;47.316;18.908;2022-08-19T13:34:45;12.53;;;6.17;;
70707;SDS011;58277;47.316;18.908;2022-08-19T13:37:08;14.90;;;6.50;;
70707;SDS011;58277;47.316;18.908;2022-08-19T13:39:32;16.50;;;5.95;;
70707;SDS011;58277;47.316;18.908;2022-08-19T13:41:55;20.38;;;5.55;;
70707;SDS011;58277;47.316;18.908;2022-08-19T13:44:18;18.40;;;6.07;;
70707;SDS011;58277;47.316;18.908;2022-08-19T13:46:41;15.33;;;5.40;;
70707;SDS011;58277;47.316;18.908;2022-08-19T13:49:06;18.05;;;5.68;;
70707;SDS011;58277;47.316;18.908;2022-08-19T13:51:29;13.90;;;5.82;;
70707;SDS011;58277;47.316;18.908;2022-08-19T13:53:52;11.88;;;5.53;;
70707;SDS011;58277;47.316;18.908;2022-08-19T13:56:17;13.20;;;5.43;;
70707;SDS011;58277;47.316;18.908;2022-08-19T13:58:47;10.90;;;5.63;;
70707;SDS011;58277;47.316;18.908;2022-08-19T14:01:10;11.55;;;5.18;;
70707;SDS011;58277;47.316;18.908;2022-08-19T14:03:33;13.20;;;5.35;;
70707;SDS011;58277;47.316;18.908;2022-08-19T14:05:56;11.85;;;4.68;;
70707;SDS011;58277;47.316;18.908;2022-08-19T14:08:21;17.20;;;5.20;;
70707;SDS011;58277;47.316;18.908;2022-08-19T14:10:44;14.30;;;4.27;;
70707;SDS011;58277;47.316;18.908;2022-08-19T14:13:07;15.48;;;4.75;;
70707;SDS011;58277;47.316;18.908;2022-08-19T14:15:30;13.57;;;3.60;;
70707;SDS011;58277;47.316;18.908;2022-08-19T14:17:54;13.88;;;3.22;;
70707;SDS011;58277;47.316;18.908;2022-08-19T14:20:17;11.88;;;3.10;;
70707;SDS011;58277;47.316;18.908;2022-08-19T14:22:41;12.60;;;3.10;;
70707;SDS011;58277;47.316;18.908;2022-08-19T14:25:04;13.45;;;2.85;;